Time;durP1;ratioP1;P1;durP2;ratioP2;P2;SDS_P1;SDS_P2;PMS_P1;PMS_P2;Temp;Humidity;BMP_temperature;BMP_pressure;BME280_temperature;BME280_humidity;BME280_pressure;Samples;Min_cycle;Max_cycle;Signal;HPM_P1;HPM_P2
2022/11/08 00:02:13;;;;;;;8.00;3.80;;;9.40;99.90;8.80;100047;;;;579508;244;24057;-84
2022/11/08 00:04:41;;;;;;;5.97;3.83;;;9.50;99.90;8.90;100046;;;;588380;243;24138;-85
2022/11/08 00:15:26;;;;;;;4.73;4.20;;;9.50;99.90;8.70;100043;;;;579055;244;24065;-80
2022/11/08 00:17:54;;;;;;;4.33;3.90;;;9.40;99.90;8.70;100043;;;;587705;244;24130;-79
2022/11/08 00:20:22;;;;;;;7.03;4.20;;;9.40;99.90;8.60;100047;;;;578714;244;24069;-80
2022/11/08 00:22:50;;;;;;;3.73;3.37;;;9.30;99.90;8.50;100046;;;;578835;244;24055;-83
2022/11/08 00:25:18;;;;;;;3.73;3.33;;;9.20;99.90;8.40;100051;;;;588126;244;24070;-82
2022/11/08 00:27:46;;;;;;;9.00;3.73;;;9.10;99.90;8.40;100050;;;;588132;244;24064;-84
2022/11/08 00:30:14;;;;;;;3.83;3.13;;;9.00;99.90;8.30;100051;;;;588130;244;24064;-86
2022/11/08 00:32:42;;;;;;;9.57;3.90;;;9.00;99.90;8.20;100051;;;;588134;244;24117;-84
2022/11/08 00:35:10;;;;;;;5.97;3.50;;;8.80;99.90;8.20;100049;;;;578850;244;24125;-82
2022/11/08 00:37:38;;;;;;;6.90;3.73;;;8.80;99.90;8.10;100053;;;;588062;244;24132;-81
2022/11/08 00:40:06;;;;;;;7.93;3.93;;;8.80;99.90;8.00;100052;;;;587842;242;24080;-81
2022/11/08 00:42:34;;;;;;;6.70;3.27;;;8.70;99.90;7.90;100049;;;;578770;243;24051;-80
2022/11/08 00:45:06;;;;;;;6.67;3.90;;;8.60;99.90;7.90;100053;;;;588910;243;24077;-83
2022/11/08 00:47:31;;;;;;;6.73;4.10;;;8.60;99.90;7.80;100054;;;;579266;244;24128;-80
2022/11/08 00:49:59;;;;;;;7.00;3.77;;;8.50;99.90;7.80;100049;;;;588326;243;24075;-81
2022/11/08 00:52:27;;;;;;;5.13;3.63;;;8.50;99.90;7.80;100054;;;;588295;244;24066;-81
2022/11/08 00:54:54;;;;;;;5.27;3.90;;;8.50;99.90;7.90;100059;;;;588145;243;24061;-81
2022/11/08 00:57:22;;;;;;;5.40;3.53;;;8.50;99.90;7.90;100059;;;;588340;243;24118;-80
2022/11/08 00:59:50;;;;;;;7.70;4.13;;;8.60;99.90;8.00;100058;;;;587968;243;24136;-81
2022/11/08 01:02:18;;;;;;;5.83;3.83;;;8.60;99.90;8.00;100053;;;;587815;243;24053;-80
2022/11/08 01:04:46;;;;;;;6.77;3.97;;;8.70;99.90;8.00;100047;;;;588025;244;24075;-83
2022/11/08 01:07:14;;;;;;;5.23;4.07;;;8.70;99.90;8.00;100043;;;;587945;243;24065;-83
2022/11/08 01:09:43;;;;;;;5.47;3.40;;;8.70;99.90;8.00;100048;;;;588073;243;24081;-80
2022/11/08 01:12:11;;;;;;;6.73;4.37;;;8.60;99.90;8.00;100047;;;;587973;243;24140;-80
2022/11/08 01:14:38;;;;;;;4.13;3.50;;;8.70;99.90;8.00;100041;;;;588008;243;24071;-80
2022/11/08 01:17:06;;;;;;;6.70;3.80;;;8.70;99.90;8.10;100050;;;;587845;244;24072;-80
2022/11/08 01:19:34;;;;;;;5.60;4.13;;;8.70;99.90;8.10;100043;;;;587629;244;24110;-79
2022/11/08 01:22:02;;;;;;;9.30;3.30;;;8.70;99.90;8.00;100036;;;;587751;244;24099;-81
2022/11/08 01:24:30;;;;;;;3.33;2.97;;;8.70;99.90;8.00;100037;;;;587626;244;24125;-78
2022/11/08 01:26:58;;;;;;;5.57;3.70;;;8.70;99.90;7.90;100036;;;;588028;244;24052;-78
2022/11/08 01:29:26;;;;;;;3.60;3.07;;;8.60;99.90;7.80;100036;;;;588086;244;24075;-80
2022/11/08 01:31:54;;;;;;;4.47;3.37;;;8.60;99.90;7.80;100038;;;;588038;244;24065;-79
2022/11/08 01:34:22;;;;;;;5.60;3.57;;;8.50;99.90;7.70;100030;;;;588082;244;24061;-84
2022/11/08 01:36:50;;;;;;;5.53;3.93;;;8.40;99.90;7.70;100028;;;;578695;244;24055;-84
2022/11/08 01:39:17;;;;;;;6.17;3.70;;;8.40;99.90;7.60;100029;;;;587822;244;24119;-84
2022/11/08 01:41:46;;;;;;;9.03;4.47;;;8.20;99.90;7.60;100024;;;;587804;244;24066;-79
2022/11/08 01:44:14;;;;;;;5.80;3.90;;;8.20;99.90;7.50;100025;;;;587954;244;24067;-79
2022/11/08 01:46:48;;;;;;;3.90;3.50;;;8.20;99.90;7.50;100020;;;;578904;244;24078;-83
2022/11/08 01:49:37;;;;;;;4.37;3.60;;;8.20;99.90;7.40;100025;;;;578514;244;24057;-79
2022/11/08 01:52:08;;;;;;;4.17;3.77;;;8.10;99.90;7.40;100030;;;;579065;243;24073;-79
2022/11/08 01:54:39;;;;;;;8.33;4.00;;;8.10;99.90;7.30;100032;;;;579661;244;24076;-80
2022/11/08 01:57:07;;;;;;;5.27;4.60;;;8.00;99.90;7.30;100026;;;;579566;244;24085;-83
2022/11/08 01:59:34;;;;;;;5.47;3.47;;;8.00;99.90;7.30;100031;;;;579614;244;24080;-83
2022/11/08 02:02:02;;;;;;;4.70;3.93;;;8.00;99.90;7.30;100033;;;;579314;244;24152;-83
2022/11/08 02:04:30;;;;;;;5.53;4.03;;;8.00;99.90;7.20;100023;;;;579236;244;24075;-83
2022/11/08 02:06:58;;;;;;;6.33;3.87;;;7.90;99.90;7.20;100019;;;;576283;244;24058;-79
2022/11/08 02:09:26;;;;;;;10.10;6.27;;;7.90;99.90;7.20;100023;;;;574202;244;46086;-81
2022/11/08 02:11:57;;;;;;;10.53;5.30;;;7.80;99.90;7.10;100023;;;;581990;244;24076;-83
2022/11/08 02:14:23;;;;;;;6.27;4.33;;;7.80;99.90;7.10;100030;;;;579332;244;24114;-81
2022/11/08 02:16:51;;;;;;;5.13;4.63;;;7.80;99.90;7.10;100018;;;;579433;244;24063;-82
2022/11/08 02:19:33;;;;;;;7.97;4.63;;;7.80;99.90;7.10;100019;;;;588052;243;24072;-81
2022/11/08 02:22:01;;;;;;;5.07;4.50;;;7.80;99.90;7.10;100018;;;;566370;249;24106;-83
2022/11/08 02:24:30;;;;;;;6.63;4.17;;;7.80;99.90;7.10;100023;;;;579040;244;24070;-84
2022/11/08 02:27:01;;;;;;;5.70;5.10;;;7.80;99.90;7.10;100021;;;;588441;243;24084;-84
2022/11/08 02:29:26;;;;;;;7.10;4.57;;;7.80;99.90;7.10;100018;;;;578826;244;24105;-82
2022/11/08 02:31:54;;;;;;;7.33;4.83;;;7.80;99.90;7.10;100018;;;;579562;244;24158;-80
2022/11/08 02:34:22;;;;;;;8.00;5.37;;;7.80;99.90;7.10;100017;;;;579938;244;24095;-80
2022/11/08 02:36:53;;;;;;;8.00;4.60;;;7.80;99.90;7.10;100018;;;;579192;244;24085;-78
2022/11/08 02:39:17;;;;;;;7.17;5.00;;;7.80;99.90;7.10;100013;;;;587969;244;24065;-79
2022/11/08 02:41:46;;;;;;;4.80;4.30;;;7.80;99.90;7.20;100011;;;;587891;244;24082;-79
2022/11/08 02:44:14;;;;;;;10.37;5.17;;;7.80;99.90;7.20;100011;;;;587619;244;24097;-81
2022/11/08 02:46:42;;;;;;;6.03;4.57;;;7.90;99.90;7.20;100009;;;;587773;244;24095;-80
2022/11/08 02:49:10;;;;;;;6.13;4.63;;;7.90;99.90;7.20;100008;;;;587700;244;24060;-83
2022/11/08 02:51:38;;;;;;;8.37;5.00;;;7.90;99.90;7.20;100019;;;;587802;244;24081;-84
2022/11/08 02:54:06;;;;;;;7.77;4.80;;;7.90;99.90;7.30;100012;;;;587677;244;24073;-80
2022/11/08 02:56:34;;;;;;;7.67;4.73;;;8.00;99.90;7.30;100018;;;;578666;244;25119;-80
2022/11/08 02:59:02;;;;;;;6.70;5.43;;;8.00;99.90;7.40;100017;;;;587753;244;24109;-84
2022/11/08 03:01:31;;;;;;;6.87;4.77;;;8.10;99.90;7.40;100020;;;;587695;244;24071;-84
2022/11/08 03:03:59;;;;;;;6.13;5.50;;;8.10;99.90;7.50;100027;;;;588439;242;24059;-84
2022/11/08 03:06:27;;;;;;;6.00;5.43;;;8.20;99.90;7.50;100025;;;;579967;244;24070;-83
2022/11/08 03:08:54;;;;;;;9.03;5.60;;;8.20;99.90;7.60;100028;;;;579810;244;24062;-84
2022/11/08 03:11:22;;;;;;;6.13;5.10;;;8.30;99.90;7.60;100025;;;;588552;243;24109;-82
2022/11/08 03:13:50;;;;;;;8.53;5.73;;;8.30;99.90;7.70;100028;;;;588307;243;24072;-81
2022/11/08 03:16:18;;;;;;;12.90;8.27;;;8.40;99.90;7.70;100022;;;;583483;244;35164;-82
2022/11/08 03:18:47;;;;;;;9.07;6.30;;;8.40;99.90;7.70;100025;;;;588658;243;25491;-81
2022/11/08 03:21:15;;;;;;;12.33;6.50;;;8.40;99.90;7.80;100024;;;;588615;243;24182;-85
2022/11/08 03:23:43;;;;;;;8.30;5.80;;;8.50;99.90;7.80;100023;;;;588355;243;24087;-81
2022/11/08 03:26:11;;;;;;;10.40;5.57;;;8.50;99.90;7.80;100018;;;;588309;243;24069;-82
2022/11/08 03:28:39;;;;;;;7.63;5.47;;;8.60;99.90;7.80;100020;;;;588014;243;25098;-81
2022/11/08 03:31:07;;;;;;;8.47;5.63;;;8.50;99.90;7.90;100017;;;;587847;243;24069;-79
2022/11/08 03:33:35;;;;;;;8.07;5.97;;;8.60;99.90;7.90;100011;;;;588090;243;24056;-80
2022/11/08 03:36:06;;;;;;;10.50;6.30;;;8.60;99.90;7.90;100006;;;;587985;243;24105;-80
2022/11/08 03:38:31;;;;;;;6.53;5.43;;;8.60;99.90;7.90;100002;;;;577289;244;24071;-81
2022/11/08 03:40:59;;;;;;;8.47;5.33;;;8.60;99.90;7.90;100007;;;;579189;244;24056;-80
2022/11/08 03:43:27;;;;;;;6.07;5.50;;;8.60;99.90;7.90;100005;;;;588087;244;24068;-80
2022/11/08 03:45:55;;;;;;;6.67;5.30;;;8.60;99.90;7.90;100001;;;;588059;244;24067;-80
2022/11/08 03:48:22;;;;;;;9.43;5.60;;;8.60;99.90;7.90;100006;;;;588062;244;24053;-82
2022/11/08 03:50:50;;;;;;;9.77;6.07;;;8.60;99.90;7.90;100004;;;;588119;244;24049;-84
2022/11/08 03:53:18;;;;;;;9.07;5.97;;;8.60;99.90;7.90;100006;;;;581988;244;24060;-85
2022/11/08 03:55:46;;;;;;;6.50;5.00;;;8.60;99.90;8.00;100009;;;;588159;244;24071;-85
2022/11/08 03:58:14;;;;;;;10.73;6.30;;;8.70;99.90;8.00;100018;;;;588092;244;24075;-85
2022/11/08 04:00:45;;;;;;;9.87;5.27;;;8.70;99.90;8.00;100010;;;;588092;244;24125;-83
2022/11/08 04:03:10;;;;;;;11.83;5.80;;;8.70;99.90;8.00;100014;;;;578816;244;24082;-80
2022/11/08 04:05:38;;;;;;;7.67;5.77;;;8.70;99.90;8.10;100014;;;;588074;244;24071;-82
2022/11/08 04:08:06;;;;;;;6.87;5.17;;;8.80;99.90;8.10;100019;;;;588056;244;24072;-85
2022/11/08 04:10:34;;;;;;;8.00;5.00;;;8.80;99.90;8.20;100018;;;;588080;244;24069;-83
2022/11/08 04:15:48;;;;;;;6.73;5.53;;;8.90;99.90;8.20;100025;;;;580135;243;24065;-79
2022/11/08 04:21:21;;;;;;;9.23;5.47;;;8.90;99.90;8.30;100020;;;;579936;244;24066;-80
2022/11/08 04:23:48;;;;;;;6.90;5.90;;;8.90;99.90;8.30;100012;;;;579883;244;24089;-82
2022/11/08 04:26:16;;;;;;;7.93;5.70;;;8.90;99.90;8.30;100022;;;;582372;244;24067;-81
2022/11/08 04:28:47;;;;;;;9.43;5.83;;;9.00;99.90;8.30;100022;;;;579635;244;24134;-80
2022/11/08 04:31:14;;;;;;;9.07;5.80;;;9.00;99.90;8.30;100029;;;;579075;244;24092;-81
2022/11/08 04:33:42;;;;;;;6.23;5.47;;;9.00;99.90;8.30;100016;;;;588458;243;24066;-79
2022/11/08 04:36:11;;;;;;;7.20;5.40;;;9.00;99.90;8.30;100016;;;;579065;244;24073;-81
2022/11/08 04:38:39;;;;;;;9.53;5.83;;;9.00;99.90;8.40;100023;;;;578936;244;24088;-81
2022/11/08 04:41:10;;;;;;;9.60;6.33;;;9.00;99.90;8.40;100031;;;;587957;243;24055;-80
2022/11/08 04:43:42;;;;;;;7.33;5.50;;;9.10;99.90;8.40;100028;;;;588327;243;24071;-80
2022/11/08 04:46:07;;;;;;;6.90;5.57;;;9.10;99.90;8.40;100028;;;;556278;254;24136;-79
2022/11/08 04:48:34;;;;;;;8.40;5.87;;;9.10;99.90;8.40;100025;;;;579186;244;24094;-80
2022/11/08 04:51:05;;;;;;;9.77;5.87;;;9.10;99.90;8.50;100017;;;;577482;244;24069;-80
2022/11/08 04:53:33;;;;;;;7.43;5.10;;;9.10;99.90;8.50;100011;;;;566166;248;24130;-81
2022/11/08 04:56:10;;;;;;;6.37;4.97;;;9.20;99.90;8.50;100011;;;;588064;243;24076;-80
2022/11/08 04:58:41;;;;;;;9.67;5.83;;;9.20;99.90;8.50;100010;;;;579187;244;24086;-81
2022/11/08 05:01:12;;;;;;;6.23;5.03;;;9.20;99.90;8.50;100008;;;;566055;249;24136;-82
2022/11/08 05:03:37;;;;;;;7.07;5.10;;;9.20;99.90;8.60;100018;;;;578824;244;24080;-84
2022/11/08 05:06:06;;;;;;;6.30;5.10;;;9.30;99.90;8.60;100018;;;;588141;244;24084;-82
2022/11/08 05:08:34;;;;;;;8.70;5.10;;;9.30;99.90;8.60;100021;;;;581981;244;24061;-81
2022/11/08 05:11:04;;;;;;;6.00;5.00;;;9.30;99.90;8.60;100019;;;;588133;244;24076;-80
2022/11/08 05:13:32;;;;;;;8.73;4.93;;;9.30;99.90;8.60;100022;;;;565849;249;24119;-82
2022/11/08 05:16:03;;;;;;;8.33;4.70;;;9.30;99.90;8.60;100019;;;;587733;243;24086;-83
2022/11/08 05:18:31;;;;;;;10.17;4.80;;;9.30;99.90;8.60;100021;;;;578776;244;24096;-82
2022/11/08 05:23:45;;;;;;;8.23;5.17;;;9.40;99.90;8.70;100009;;;;582087;244;24129;-81
2022/11/08 05:26:13;;;;;;;13.70;5.37;;;9.30;99.90;8.70;100013;;;;578739;244;24072;-86
2022/11/08 05:28:41;;;;;;;6.33;5.33;;;9.40;99.90;8.70;100016;;;;580202;243;24102;-82
2022/11/08 05:31:09;;;;;;;8.53;5.20;;;9.40;99.90;8.70;100021;;;;588873;243;24156;-82
2022/11/08 05:33:37;;;;;;;6.97;5.17;;;9.40;99.90;8.70;100018;;;;589030;243;25171;-82
2022/11/08 05:36:10;;;;;;;8.63;5.70;;;9.40;99.90;8.70;100018;;;;579975;244;24052;-83
2022/11/08 05:38:38;;;;;;;8.67;5.13;;;9.40;99.90;8.80;100026;;;;579747;244;24113;-81
2022/11/08 05:41:06;;;;;;;8.63;5.07;;;9.50;99.90;8.80;100031;;;;580098;244;24093;-83
2022/11/08 05:43:34;;;;;;;8.50;5.00;;;9.50;99.90;8.80;100030;;;;579735;244;24052;-82
2022/11/08 05:46:02;;;;;;;7.00;4.67;;;9.50;99.90;8.80;100030;;;;579929;244;24075;-78
2022/11/08 05:48:30;;;;;;;9.47;5.80;;;9.50;99.90;8.80;100029;;;;583804;244;24093;-80
2022/11/08 05:51:00;;;;;;;8.97;4.60;;;9.50;99.90;8.80;100035;;;;588575;243;24069;-83
2022/11/08 05:53:25;;;;;;;5.47;4.73;;;9.50;99.90;8.90;100040;;;;579855;244;24113;-81
2022/11/08 05:56:04;;;;;;;7.53;4.63;;;9.60;99.90;8.90;100040;;;;588933;243;24098;-79
2022/11/08 05:58:27;;;;;;;5.00;4.50;;;9.60;99.90;8.90;100040;;;;579972;244;24073;-81
2022/11/08 06:01:04;;;;;;;7.43;4.97;;;9.60;99.90;8.90;100051;;;;579556;244;24114;-83
2022/11/08 06:03:29;;;;;;;8.83;5.13;;;9.60;99.90;8.90;100040;;;;566406;249;24105;-83
2022/11/08 06:06:09;;;;;;;5.27;4.83;;;9.70;99.90;9.00;100052;;;;587961;243;24157;-85
2022/11/08 06:08:40;;;;;;;5.77;4.80;;;9.70;99.90;9.00;100057;;;;588245;244;24057;-81
2022/11/08 06:11:08;;;;;;;8.20;5.07;;;9.70;99.90;9.00;100047;;;;578480;244;24092;-83
2022/11/08 06:13:40;;;;;;;5.53;4.67;;;9.70;99.90;9.00;100049;;;;587581;244;24116;-82
2022/11/08 06:16:05;;;;;;;6.00;4.50;;;9.70;99.90;9.00;100059;;;;578715;244;24125;-81
2022/11/08 06:18:33;;;;;;;10.40;4.80;;;9.70;99.90;9.00;100045;;;;579111;244;24074;-83
2022/11/08 06:21:01;;;;;;;8.17;4.57;;;9.70;99.90;9.10;100057;;;;579155;244;24092;-83
2022/11/08 06:23:32;;;;;;;12.83;5.23;;;9.70;99.90;9.10;100058;;;;579082;244;24079;-81
2022/11/08 06:25:57;;;;;;;6.90;4.67;;;9.80;99.90;9.10;100052;;;;587667;244;24105;-84
2022/11/08 06:28:26;;;;;;;6.73;4.50;;;9.80;99.90;9.10;100064;;;;588009;244;24072;-84
2022/11/08 06:30:53;;;;;;;5.83;4.33;;;9.80;99.90;9.20;100064;;;;578964;244;24082;-84
2022/11/08 06:33:21;;;;;;;6.40;4.03;;;9.80;99.90;9.20;100069;;;;588126;244;24052;-83
2022/11/08 06:35:49;;;;;;;7.50;4.30;;;9.90;99.90;9.20;100064;;;;587615;244;24052;-83
2022/11/08 06:38:20;;;;;;;14.03;4.43;;;9.90;99.90;9.30;100064;;;;588148;242;25154;-85
2022/11/08 06:40:45;;;;;;;8.47;4.17;;;10.00;99.90;9.30;100064;;;;576022;244;24068;-85
2022/11/08 06:43:13;;;;;;;6.77;4.27;;;10.00;99.90;9.40;100065;;;;588661;243;24085;-84
2022/11/08 06:45:41;;;;;;;5.43;3.90;;;10.00;99.90;9.40;100062;;;;579611;244;24165;-84
2022/11/08 06:48:12;;;;;;;6.10;4.20;;;10.10;99.90;9.40;100060;;;;579788;244;24077;-82
2022/11/08 06:50:37;;;;;;;4.27;3.17;;;10.10;99.90;9.50;100063;;;;588455;243;24094;-80
2022/11/08 06:53:05;;;;;;;6.50;4.03;;;10.10;99.90;9.50;100060;;;;588589;243;24172;-80
2022/11/08 06:55:33;;;;;;;8.37;3.90;;;10.10;99.90;9.50;100058;;;;579479;244;24109;-80
2022/11/08 06:58:04;;;;;;;5.23;3.83;;;10.20;99.90;9.50;100073;;;;579304;244;24085;-81
2022/11/08 07:00:32;;;;;;;7.10;3.40;;;10.20;99.90;9.60;100079;;;;579138;244;24057;-82
2022/11/08 07:02:57;;;;;;;4.67;3.13;;;10.30;99.90;9.60;100064;;;;579202;244;24110;-79
2022/11/08 07:05:25;;;;;;;4.10;3.27;;;10.30;99.90;9.70;100069;;;;579068;244;24059;-81
2022/11/08 07:07:57;;;;;;;7.00;3.07;;;10.30;99.90;9.70;100068;;;;566530;249;24122;-82
2022/11/08 07:10:21;;;;;;;9.83;3.40;;;10.40;99.90;9.80;100066;;;;579151;244;24132;-82
2022/11/08 07:12:50;;;;;;;5.37;3.50;;;10.60;99.90;9.90;100066;;;;579255;244;24083;-81
2022/11/08 07:15:18;;;;;;;3.27;2.97;;;10.50;99.90;9.90;100058;;;;578877;244;24079;-82
2022/11/08 07:17:46;;;;;;;6.87;3.30;;;10.60;99.90;10.00;100067;;;;588181;244;24091;-81
2022/11/08 07:20:13;;;;;;;5.67;3.17;;;10.70;99.90;10.10;100052;;;;588415;244;24052;-81
2022/11/08 07:22:41;;;;;;;7.17;3.20;;;10.70;99.90;10.10;100061;;;;588728;244;24056;-80
2022/11/08 07:25:09;;;;;;;6.70;3.07;;;10.80;99.90;10.20;100056;;;;588514;244;24057;-82
2022/11/08 07:27:37;;;;;;;3.80;3.13;;;10.80;99.90;10.20;100067;;;;588449;244;24095;-83
2022/11/08 07:30:05;;;;;;;5.50;3.00;;;10.90;99.90;10.30;100062;;;;588453;244;24065;-83
2022/11/08 07:32:33;;;;;;;5.77;3.03;;;10.90;99.90;10.30;100063;;;;577468;244;24052;-81
2022/11/08 07:35:02;;;;;;;3.90;3.10;;;11.10;99.90;10.40;100066;;;;579135;244;24125;-81
2022/11/08 07:37:31;;;;;;;6.50;2.57;;;11.10;99.90;10.50;100075;;;;578873;244;24062;-84
2022/11/08 07:39:58;;;;;;;5.73;2.63;;;11.10;99.90;10.60;100078;;;;587587;244;25116;-79
2022/11/08 07:42:27;;;;;;;6.03;2.50;;;11.30;99.90;10.70;100079;;;;587637;244;24133;-81
2022/11/08 07:44:55;;;;;;;6.70;2.63;;;11.30;99.90;10.70;100075;;;;578771;244;24077;-81
2022/11/08 07:47:23;;;;;;;9.33;3.53;;;11.40;99.90;10.80;100074;;;;587783;244;24097;-79
2022/11/08 07:49:51;;;;;;;10.70;3.60;;;11.50;99.90;10.80;100074;;;;579459;242;24056;-83
2022/11/08 07:52:19;;;;;;;8.50;3.10;;;11.50;99.90;11.00;100077;;;;589422;243;24086;-81
2022/11/08 07:54:47;;;;;;;3.57;2.80;;;11.60;99.90;11.10;100078;;;;588807;243;24043;-81
2022/11/08 07:57:19;;;;;;;4.77;2.50;;;11.80;99.90;11.20;100074;;;;588527;243;24060;-80
2022/11/08 07:59:44;;;;;;;8.53;3.53;;;11.90;99.90;11.30;100078;;;;579070;244;24146;-82
2022/11/08 08:02:16;;;;;;;5.60;3.00;;;12.00;99.90;11.40;100083;;;;579205;244;24052;-81
2022/11/08 08:04:41;;;;;;;4.00;3.10;;;12.00;99.90;11.40;100077;;;;579005;244;24064;-81
2022/11/08 08:07:11;;;;;;;8.50;2.83;;;12.10;99.90;11.40;100078;;;;588303;243;24057;-80
2022/11/08 08:09:37;;;;;;;10.43;2.93;;;12.10;99.90;11.50;100076;;;;587863;244;24071;-82
2022/11/08 08:12:08;;;;;;;12.20;3.20;;;12.20;99.90;11.50;100076;;;;587861;243;24048;-81
2022/11/08 08:14:36;;;;;;;10.33;3.50;;;12.20;99.90;11.50;100073;;;;578677;244;24100;-82
2022/11/08 08:17:00;;;;;;;5.07;3.03;;;12.20;99.90;11.60;100067;;;;578610;244;24081;-84
2022/11/08 08:19:28;;;;;;;5.67;3.07;;;12.20;99.90;11.60;100070;;;;588070;243;24130;-86
2022/11/08 08:21:56;;;;;;;5.90;2.93;;;12.30;99.90;11.70;100074;;;;587978;243;24070;-85
2022/11/08 08:24:25;;;;;;;7.60;3.03;;;12.30;99.90;11.70;100066;;;;588147;243;24085;-85
2022/11/08 08:26:56;;;;;;;4.50;2.50;;;12.30;99.90;11.70;100070;;;;587828;243;24051;-83
2022/11/08 08:29:21;;;;;;;9.77;3.17;;;12.30;99.90;11.70;100068;;;;578440;244;24065;-85
2022/11/08 08:31:49;;;;;;;8.23;3.00;;;12.30;99.90;11.60;100063;;;;587845;244;24099;-84
2022/11/08 08:34:17;;;;;;;4.43;2.63;;;12.30;99.90;11.60;100074;;;;587733;244;24111;-83
2022/11/08 08:36:45;;;;;;;5.63;3.07;;;12.30;99.90;11.60;100077;;;;587884;244;24062;-83
2022/11/08 08:39:13;;;;;;;13.23;3.53;;;12.20;99.90;11.60;100066;;;;588200;244;24059;-86
2022/11/08 08:41:41;;;;;;;6.63;3.30;;;12.30;99.90;11.70;100077;;;;579205;244;24076;-82
2022/11/08 08:44:10;;;;;;;6.03;3.00;;;12.40;99.90;11.80;100067;;;;579302;244;24060;-83
2022/11/08 08:46:38;;;;;;;7.60;3.03;;;12.30;99.90;12.00;100076;;;;588222;244;24076;-85
2022/11/08 08:49:06;;;;;;;4.47;3.00;;;12.50;99.90;12.20;100079;;;;588152;244;24053;-83
2022/11/08 08:51:34;;;;;;;5.13;2.87;;;12.70;99.90;12.30;100078;;;;578838;244;24094;-85
2022/11/08 08:54:02;;;;;;;5.33;3.43;;;12.90;99.90;12.60;100084;;;;587903;244;24063;-84
2022/11/08 08:56:30;;;;;;;5.83;3.20;;;13.10;99.90;13.00;100096;;;;587889;244;24075;-85
2022/11/08 08:58:57;;;;;;;4.37;2.30;;;13.50;99.90;13.90;100090;;;;578843;244;24029;-85
2022/11/08 09:01:25;;;;;;;4.13;2.53;;;14.20;99.90;15.00;100088;;;;579306;242;24118;-84
2022/11/08 09:03:57;;;;;;;4.50;2.73;;;15.30;99.90;15.60;100095;;;;580183;244;24055;-83
2022/11/08 09:06:22;;;;;;;4.17;2.80;;;16.80;99.90;16.40;100099;;;;579451;244;24063;-84
2022/11/08 09:08:50;;;;;;;8.40;3.20;;;16.80;99.90;17.10;100089;;;;589096;243;24063;-85
2022/11/08 09:11:19;;;;;;;9.07;2.77;;;17.60;99.90;17.30;100093;;;;580616;244;24041;-80
2022/11/08 09:13:47;;;;;;;3.47;3.17;;;17.90;99.90;17.80;100095;;;;579879;244;24096;-80
2022/11/08 09:16:15;;;;;;;4.57;2.47;;;18.40;99.90;18.80;100091;;;;588361;244;24124;-80
2022/11/08 09:18:43;;;;;;;5.23;2.43;;;19.20;99.90;19.70;100089;;;;588407;243;24057;-80
2022/11/08 09:21:11;;;;;;;4.63;2.87;;;20.20;99.90;20.30;100099;;;;579069;244;24144;-82
2022/11/08 09:23:41;;;;;;;3.83;2.77;;;21.20;99.90;20.70;100095;;;;588147;243;24101;-82
2022/11/08 09:26:08;;;;;;;4.73;2.63;;;21.30;99.90;20.80;100100;;;;579152;244;24101;-82
2022/11/08 09:28:39;;;;;;;5.57;3.17;;;21.30;99.90;20.40;100094;;;;579023;243;24072;-81
2022/11/08 09:31:07;;;;;;;10.63;4.00;;;21.00;99.90;19.60;100101;;;;579020;244;24052;-80
2022/11/08 09:33:37;;;;;;;4.57;2.93;;;20.40;99.90;18.90;100100;;;;579067;244;23097;-81
2022/11/08 09:36:05;;;;;;;4.03;2.20;;;19.80;99.90;18.50;100097;;;;579042;244;24115;-81
2022/11/08 09:38:34;;;;;;;7.23;3.20;;;19.00;99.90;18.20;100092;;;;583205;244;24098;-81
2022/11/08 09:41:36;;;;;;;6.00;3.07;;;19.00;99.90;18.10;100094;;;;579304;244;24086;-81
2022/11/08 09:44:12;;;;;;;6.97;2.67;;;18.80;99.90;17.90;100102;;;;579319;244;23086;-82
2022/11/08 09:46:53;;;;;;;5.70;3.03;;;18.60;99.90;17.80;100094;;;;578886;244;24097;-82
2022/11/08 09:49:36;;;;;;;6.80;3.23;;;18.50;99.90;17.60;100097;;;;579024;244;24091;-80
2022/11/08 09:52:04;;;;;;;7.27;2.83;;;18.00;99.90;17.30;100092;;;;579105;244;24060;-80
2022/11/08 09:54:33;;;;;;;12.23;3.73;;;17.90;99.90;17.00;100087;;;;587878;243;24088;-82
2022/11/08 09:57:04;;;;;;;10.67;3.33;;;17.70;99.90;16.70;100085;;;;578108;244;24085;-81
2022/11/08 09:59:43;;;;;;;5.60;2.87;;;17.30;99.90;16.30;100092;;;;587611;244;24080;-82
2022/11/08 10:02:20;;;;;;;8.03;3.47;;;16.90;99.90;15.90;100090;;;;576436;244;24090;-82
2022/11/08 10:04:47;;;;;;;7.83;3.40;;;16.50;99.90;15.70;100095;;;;566394;249;24116;-83
2022/11/08 10:07:36;;;;;;;13.23;3.77;;;16.30;99.90;15.60;100100;;;;578386;244;24104;-84
2022/11/08 10:10:26;;;;;;;5.43;3.60;;;16.10;99.90;15.40;100102;;;;578810;244;24068;-81
2022/11/08 10:12:58;;;;;;;5.10;3.43;;;16.00;99.90;15.40;100096;;;;579267;242;24095;-81
2022/11/08 10:15:47;;;;;;;4.27;2.80;;;15.90;99.90;15.40;100087;;;;578450;244;24059;-81
2022/11/08 10:18:38;;;;;;;4.80;2.67;;;15.90;99.90;15.30;100088;;;;580060;244;24059;-84
2022/11/08 10:21:19;;;;;;;6.53;2.93;;;15.90;99.90;15.30;100086;;;;579802;244;24052;-80
2022/11/08 10:24:02;;;;;;;9.40;3.17;;;15.90;99.90;15.30;100090;;;;579711;244;24063;-80
2022/11/08 10:26:33;;;;;;;9.17;3.13;;;15.80;99.90;15.30;100081;;;;579648;244;24083;-81
2022/11/08 10:29:07;;;;;;;5.73;2.80;;;15.80;99.90;15.20;100083;;;;579653;244;25166;-80
2022/11/08 10:31:35;;;;;;;7.00;3.13;;;15.80;99.90;15.20;100081;;;;579056;244;24060;-80
2022/11/08 10:34:03;;;;;;;4.23;2.60;;;15.80;99.90;15.20;100092;;;;579358;244;24060;-81
2022/11/08 10:36:45;;;;;;;2.83;2.43;;;15.70;99.90;15.10;100090;;;;579095;244;24071;-82
2022/11/08 10:39:28;;;;;;;4.13;3.10;;;15.70;99.90;15.00;100081;;;;579822;244;24098;-82
2022/11/08 10:42:08;;;;;;;10.10;2.80;;;15.60;99.90;15.00;100091;;;;579444;244;24149;-84
2022/11/08 10:44:36;;;;;;;3.93;2.57;;;15.60;99.90;15.10;100081;;;;579259;244;24169;-80
2022/11/08 10:47:03;;;;;;;14.87;3.83;;;15.60;99.90;15.30;100079;;;;579037;244;24125;-82
2022/11/08 10:49:34;;;;;;;4.20;2.93;;;15.80;99.90;15.50;100080;;;;579158;244;24106;-82
2022/11/08 10:52:02;;;;;;;4.80;2.90;;;16.00;99.90;15.80;100091;;;;578874;244;24171;-83
2022/11/08 10:54:50;;;;;;;5.73;2.50;;;16.20;99.90;15.90;100082;;;;577906;244;24133;-82
2022/11/08 10:57:29;;;;;;;4.03;2.27;;;16.40;99.90;15.80;100078;;;;578681;244;24158;-80
2022/11/08 10:59:58;;;;;;;4.23;2.43;;;16.40;99.90;15.60;100069;;;;578910;244;24092;-82
2022/11/08 11:02:29;;;;;;;5.70;2.57;;;16.30;99.90;15.40;100069;;;;578266;244;24109;-83
2022/11/08 11:05:16;;;;;;;7.77;2.30;;;16.10;99.90;15.10;100063;;;;578713;244;24069;-79
2022/11/08 11:07:58;;;;;;;8.43;2.57;;;15.80;99.90;14.90;100069;;;;579477;244;24060;-82
2022/11/08 11:10:42;;;;;;;4.63;2.93;;;15.30;99.90;14.70;100065;;;;578873;244;24077;-80
2022/11/08 11:13:31;;;;;;;4.07;2.37;;;15.30;99.90;14.50;100066;;;;579030;244;24092;-80
2022/11/08 11:16:02;;;;;;;10.87;2.60;;;14.90;99.90;14.40;100064;;;;579058;244;24062;-80
2022/11/08 11:18:33;;;;;;;4.37;2.50;;;15.00;99.90;14.40;100065;;;;578833;244;24076;-80
2022/11/08 11:21:23;;;;;;;3.00;2.00;;;14.90;99.90;14.40;100067;;;;579373;244;24140;-82
2022/11/08 11:24:06;;;;;;;9.13;2.60;;;14.90;99.90;14.40;100065;;;;578773;244;24126;-80
2022/11/08 11:26:34;;;;;;;5.43;2.97;;;14.90;99.90;14.30;100070;;;;579694;243;24059;-79
2022/11/08 11:29:21;;;;;;;3.67;2.53;;;14.90;99.90;14.30;100059;;;;579496;244;24165;-79
2022/11/08 11:31:49;;;;;;;6.40;2.60;;;14.80;99.90;14.20;100061;;;;580284;244;24090;-81
2022/11/08 11:34:19;;;;;;;7.33;2.77;;;14.70;99.90;14.10;100064;;;;580484;244;24081;-81
2022/11/08 11:37:12;;;;;;;5.37;2.43;;;14.60;99.90;14.00;100068;;;;580776;244;24077;-79
2022/11/08 11:39:45;;;;;;;6.97;2.87;;;14.60;99.90;13.90;100067;;;;577867;244;24057;-81
2022/11/08 11:42:28;;;;;;;11.63;2.77;;;14.40;99.90;13.80;100058;;;;580625;244;24066;-82
2022/11/08 11:45:05;;;;;;;10.30;3.10;;;14.40;99.90;13.70;100066;;;;580398;244;24082;-81
2022/11/08 11:47:49;;;;;;;3.80;3.03;;;14.30;99.90;13.70;100064;;;;580258;244;24143;-81